sensor_id;sensor_type;location;lat;lon;timestamp;P1;durP1;ratioP1;P2;durP2;ratioP2
1467;SDS011;727;48.892;9.544;2023-07-29T00:02:11;7.80;;;6.97;;
1467;SDS011;727;48.892;9.544;2023-07-29T00:04:38;9.10;;;7.20;;
1467;SDS011;727;48.892;9.544;2023-07-29T00:07:07;6.43;;;5.77;;
1467;SDS011;727;48.892;9.544;2023-07-29T00:09:33;10.67;;;5.43;;
1467;SDS011;727;48.892;9.544;2023-07-29T00:12:00;5.17;;;4.77;;
1467;SDS011;727;48.892;9.544;2023-07-29T00:14:27;4.20;;;3.90;;
1467;SDS011;727;48.892;9.544;2023-07-29T00:16:54;11.20;;;5.80;;
1467;SDS011;727;48.892;9.544;2023-07-29T00:19:20;7.83;;;7.03;;
1467;SDS011;727;48.892;9.544;2023-07-29T00:21:48;9.97;;;7.17;;
1467;SDS011;727;48.892;9.544;2023-07-29T00:24:16;7.30;;;6.60;;
1467;SDS011;727;48.892;9.544;2023-07-29T00:26:43;7.17;;;6.57;;
1467;SDS011;727;48.892;9.544;2023-07-29T00:29:13;11.10;;;6.70;;
1467;SDS011;727;48.892;9.544;2023-07-29T00:31:40;9.20;;;6.10;;
1467;SDS011;727;48.892;9.544;2023-07-29T00:34:07;4.80;;;4.40;;
1467;SDS011;727;48.892;9.544;2023-07-29T00:36:34;5.97;;;5.40;;
1467;SDS011;727;48.892;9.544;2023-07-29T00:39:01;12.10;;;5.90;;
1467;SDS011;727;48.892;9.544;2023-07-29T00:41:29;6.80;;;5.70;;
1467;SDS011;727;48.892;9.544;2023-07-29T00:43:56;6.70;;;5.60;;
1467;SDS011;727;48.892;9.544;2023-07-29T00:46:22;6.53;;;5.93;;
1467;SDS011;727;48.892;9.544;2023-07-29T00:48:50;7.90;;;6.23;;
1467;SDS011;727;48.892;9.544;2023-07-29T00:51:17;9.10;;;5.23;;
1467;SDS011;727;48.892;9.544;2023-07-29T00:53:44;5.30;;;4.83;;
1467;SDS011;727;48.892;9.544;2023-07-29T00:56:10;5.23;;;4.73;;
1467;SDS011;727;48.892;9.544;2023-07-29T00:58:39;5.33;;;4.47;;
1467;SDS011;727;48.892;9.544;2023-07-29T01:01:06;6.10;;;5.50;;
1467;SDS011;727;48.892;9.544;2023-07-29T01:03:32;5.30;;;4.80;;
1467;SDS011;727;48.892;9.544;2023-07-29T01:06:05;8.33;;;5.13;;
1467;SDS011;727;48.892;9.544;2023-07-29T01:08:43;5.50;;;5.00;;
1467;SDS011;727;48.892;9.544;2023-07-29T01:11:18;6.40;;;4.63;;
1467;SDS011;727;48.892;9.544;2023-07-29T01:13:57;5.13;;;3.80;;
1467;SDS011;727;48.892;9.544;2023-07-29T01:16:30;8.77;;;4.73;;
1467;SDS011;727;48.892;9.544;2023-07-29T01:19:01;4.40;;;3.83;;
1467;SDS011;727;48.892;9.544;2023-07-29T01:21:32;5.57;;;4.00;;
1467;SDS011;727;48.892;9.544;2023-07-29T01:24:02;7.23;;;4.63;;
1467;SDS011;727;48.892;9.544;2023-07-29T01:26:29;4.20;;;3.80;;
1467;SDS011;727;48.892;9.544;2023-07-29T01:28:56;6.27;;;4.17;;
1467;SDS011;727;48.892;9.544;2023-07-29T01:31:26;8.17;;;5.57;;
1467;SDS011;727;48.892;9.544;2023-07-29T01:33:59;4.77;;;4.27;;
1467;SDS011;727;48.892;9.544;2023-07-29T01:36:32;3.67;;;3.37;;
1467;SDS011;727;48.892;9.544;2023-07-29T01:39:05;5.90;;;3.17;;
1467;SDS011;727;48.892;9.544;2023-07-29T01:41:32;3.23;;;2.93;;
1467;SDS011;727;48.892;9.544;2023-07-29T01:43:59;3.88;;;3.47;;
1467;SDS011;727;48.892;9.544;2023-07-29T01:46:27;4.60;;;2.97;;
1467;SDS011;727;48.892;9.544;2023-07-29T01:48:54;3.43;;;3.13;;
1467;SDS011;727;48.892;9.544;2023-07-29T01:51:21;3.60;;;3.30;;
1467;SDS011;727;48.892;9.544;2023-07-29T01:53:48;4.40;;;3.03;;
1467;SDS011;727;48.892;9.544;2023-07-29T01:56:16;3.50;;;3.30;;
1467;SDS011;727;48.892;9.544;2023-07-29T01:58:43;5.83;;;3.17;;
1467;SDS011;727;48.892;9.544;2023-07-29T02:01:09;3.50;;;3.23;;
1467;SDS011;727;48.892;9.544;2023-07-29T02:03:36;3.80;;;3.50;;
1467;SDS011;727;48.892;9.544;2023-07-29T02:06:03;3.47;;;3.17;;
1467;SDS011;727;48.892;9.544;2023-07-29T02:08:30;2.77;;;2.57;;
1467;SDS011;727;48.892;9.544;2023-07-29T02:10:56;3.93;;;3.03;;
1467;SDS011;727;48.892;9.544;2023-07-29T02:13:25;4.53;;;3.10;;
1467;SDS011;727;48.892;9.544;2023-07-29T02:15:51;5.50;;;3.43;;
1467;SDS011;727;48.892;9.544;2023-07-29T02:18:18;11.90;;;3.20;;
1467;SDS011;727;48.892;9.544;2023-07-29T02:20:45;4.20;;;2.83;;
1467;SDS011;727;48.892;9.544;2023-07-29T02:23:14;5.67;;;2.77;;
1467;SDS011;727;48.892;9.544;2023-07-29T02:25:41;2.90;;;2.60;;
1467;SDS011;727;48.892;9.544;2023-07-29T02:28:08;5.60;;;3.70;;
1467;SDS011;727;48.892;9.544;2023-07-29T02:30:41;9.53;;;3.07;;
1467;SDS011;727;48.892;9.544;2023-07-29T02:33:10;3.37;;;3.07;;
1467;SDS011;727;48.892;9.544;2023-07-29T02:35:36;3.50;;;2.70;;
1467;SDS011;727;48.892;9.544;2023-07-29T02:38:03;7.57;;;3.37;;
1467;SDS011;727;48.892;9.544;2023-07-29T02:40:31;4.30;;;2.57;;
1467;SDS011;727;48.892;9.544;2023-07-29T02:42:58;2.43;;;2.27;;
1467;SDS011;727;48.892;9.544;2023-07-29T02:45:25;4.90;;;2.90;;
1467;SDS011;727;48.892;9.544;2023-07-29T02:47:53;5.93;;;2.93;;
1467;SDS011;727;48.892;9.544;2023-07-29T02:50:19;4.13;;;2.53;;
1467;SDS011;727;48.892;9.544;2023-07-29T02:52:46;3.40;;;3.10;;
1467;SDS011;727;48.892;9.544;2023-07-29T02:55:13;3.13;;;2.27;;
1467;SDS011;727;48.892;9.544;2023-07-29T02:57:40;2.83;;;2.63;;
1467;SDS011;727;48.892;9.544;2023-07-29T03:00:07;2.20;;;2.00;;
1467;SDS011;727;48.892;9.544;2023-07-29T03:02:35;1.70;;;1.60;;
1467;SDS011;727;48.892;9.544;2023-07-29T03:05:04;4.43;;;2.13;;
1467;SDS011;727;48.892;9.544;2023-07-29T03:07:31;2.17;;;1.97;;
1467;SDS011;727;48.892;9.544;2023-07-29T03:09:58;2.40;;;2.20;;
1467;SDS011;727;48.892;9.544;2023-07-29T03:12:24;10.70;;;3.20;;
1467;SDS011;727;48.892;9.544;2023-07-29T03:14:51;6.70;;;2.70;;
1467;SDS011;727;48.892;9.544;2023-07-29T03:17:18;5.90;;;2.60;;
1467;SDS011;727;48.892;9.544;2023-07-29T03:19:45;5.57;;;2.00;;
1467;SDS011;727;48.892;9.544;2023-07-29T03:22:13;15.60;;;3.23;;
1467;SDS011;727;48.892;9.544;2023-07-29T03:24:40;2.77;;;1.80;;
1467;SDS011;727;48.892;9.544;2023-07-29T03:27:07;3.60;;;2.10;;
1467;SDS011;727;48.892;9.544;2023-07-29T03:29:35;4.27;;;1.87;;
1467;SDS011;727;48.892;9.544;2023-07-29T03:32:01;3.20;;;2.17;;
1467;SDS011;727;48.892;9.544;2023-07-29T03:34:28;3.90;;;2.17;;
1467;SDS011;727;48.892;9.544;2023-07-29T03:36:55;3.10;;;1.53;;
1467;SDS011;727;48.892;9.544;2023-07-29T03:39:23;2.33;;;2.23;;
1467;SDS011;727;48.892;9.544;2023-07-29T03:41:50;5.20;;;2.20;;
1467;SDS011;727;48.892;9.544;2023-07-29T03:44:16;4.47;;;2.20;;
1467;SDS011;727;48.892;9.544;2023-07-29T03:46:43;3.00;;;2.10;;
1467;SDS011;727;48.892;9.544;2023-07-29T03:49:10;5.43;;;2.20;;
1467;SDS011;727;48.892;9.544;2023-07-29T03:51:37;4.80;;;2.77;;
1467;SDS011;727;48.892;9.544;2023-07-29T03:54:04;14.70;;;2.40;;
1467;SDS011;727;48.892;9.544;2023-07-29T03:56:32;5.37;;;2.13;;
1467;SDS011;727;48.892;9.544;2023-07-29T03:59:03;3.80;;;2.10;;
1467;SDS011;727;48.892;9.544;2023-07-29T04:01:31;2.47;;;2.27;;
1467;SDS011;727;48.892;9.544;2023-07-29T04:03:58;2.33;;;2.13;;
1467;SDS011;727;48.892;9.544;2023-07-29T04:06:25;3.50;;;2.10;;
1467;SDS011;727;48.892;9.544;2023-07-29T04:08:52;8.40;;;2.33;;
1467;SDS011;727;48.892;9.544;2023-07-29T04:11:19;4.90;;;2.57;;
1467;SDS011;727;48.892;9.544;2023-07-29T04:13:47;7.77;;;2.73;;
1467;SDS011;727;48.892;9.544;2023-07-29T04:16:14;6.37;;;2.47;;
1467;SDS011;727;48.892;9.544;2023-07-29T04:18:44;7.33;;;2.53;;
1467;SDS011;727;48.892;9.544;2023-07-29T04:21:10;3.60;;;2.37;;
1467;SDS011;727;48.892;9.544;2023-07-29T04:23:37;4.50;;;2.13;;
1467;SDS011;727;48.892;9.544;2023-07-29T04:26:05;3.23;;;2.37;;
1467;SDS011;727;48.892;9.544;2023-07-29T04:28:32;3.17;;;2.07;;
1467;SDS011;727;48.892;9.544;2023-07-29T04:31:00;2.30;;;2.03;;
1467;SDS011;727;48.892;9.544;2023-07-29T04:33:27;6.27;;;3.27;;
1467;SDS011;727;48.892;9.544;2023-07-29T04:35:55;4.20;;;2.90;;
1467;SDS011;727;48.892;9.544;2023-07-29T04:38:24;9.80;;;3.00;;
1467;SDS011;727;48.892;9.544;2023-07-29T04:40:57;4.83;;;2.60;;
1467;SDS011;727;48.892;9.544;2023-07-29T04:43:26;3.90;;;2.20;;
1467;SDS011;727;48.892;9.544;2023-07-29T04:45:53;3.60;;;2.23;;
1467;SDS011;727;48.892;9.544;2023-07-29T04:48:21;3.60;;;2.20;;
1467;SDS011;727;48.892;9.544;2023-07-29T04:50:48;2.40;;;2.20;;
1467;SDS011;727;48.892;9.544;2023-07-29T04:53:14;2.57;;;2.00;;
1467;SDS011;727;48.892;9.544;2023-07-29T04:55:41;3.20;;;2.50;;
1467;SDS011;727;48.892;9.544;2023-07-29T04:58:08;2.97;;;2.67;;
1467;SDS011;727;48.892;9.544;2023-07-29T05:00:35;3.27;;;2.27;;
1467;SDS011;727;48.892;9.544;2023-07-29T05:03:02;3.03;;;2.53;;
1467;SDS011;727;48.892;9.544;2023-07-29T05:05:30;2.40;;;2.07;;
1467;SDS011;727;48.892;9.544;2023-07-29T05:07:57;2.40;;;2.20;;
1467;SDS011;727;48.892;9.544;2023-07-29T05:10:23;3.00;;;2.70;;
1467;SDS011;727;48.892;9.544;2023-07-29T05:12:50;5.80;;;2.67;;
1467;SDS011;727;48.892;9.544;2023-07-29T05:15:17;3.03;;;1.80;;
1467;SDS011;727;48.892;9.544;2023-07-29T05:17:45;3.23;;;2.60;;
1467;SDS011;727;48.892;9.544;2023-07-29T05:20:11;5.00;;;2.00;;
1467;SDS011;727;48.892;9.544;2023-07-29T05:22:40;5.07;;;3.70;;
1467;SDS011;727;48.892;9.544;2023-07-29T05:25:08;4.03;;;2.20;;
1467;SDS011;727;48.892;9.544;2023-07-29T05:27:35;3.03;;;2.53;;
1467;SDS011;727;48.892;9.544;2023-07-29T05:30:02;2.67;;;2.47;;
1467;SDS011;727;48.892;9.544;2023-07-29T05:32:29;4.63;;;3.20;;
1467;SDS011;727;48.892;9.544;2023-07-29T05:34:56;5.70;;;3.07;;
1467;SDS011;727;48.892;9.544;2023-07-29T05:37:22;5.43;;;3.17;;
1467;SDS011;727;48.892;9.544;2023-07-29T05:39:50;4.17;;;2.67;;
1467;SDS011;727;48.892;9.544;2023-07-29T05:42:17;5.43;;;3.00;;
1467;SDS011;727;48.892;9.544;2023-07-29T05:44:44;3.60;;;2.40;;
1467;SDS011;727;48.892;9.544;2023-07-29T05:47:11;2.60;;;2.40;;
1467;SDS011;727;48.892;9.544;2023-07-29T05:49:38;5.47;;;2.23;;
1467;SDS011;727;48.892;9.544;2023-07-29T05:52:05;6.00;;;2.90;;
1467;SDS011;727;48.892;9.544;2023-07-29T05:54:32;2.80;;;2.50;;
1467;SDS011;727;48.892;9.544;2023-07-29T05:57:00;2.20;;;2.00;;
1467;SDS011;727;48.892;9.544;2023-07-29T05:59:27;1.90;;;1.80;;
1467;SDS011;727;48.892;9.544;2023-07-29T06:01:54;7.17;;;2.10;;
1467;SDS011;727;48.892;9.544;2023-07-29T06:04:21;3.30;;;1.87;;
1467;SDS011;727;48.892;9.544;2023-07-29T06:06:48;4.27;;;2.30;;
1467;SDS011;727;48.892;9.544;2023-07-29T06:09:15;2.30;;;2.00;;
1467;SDS011;727;48.892;9.544;2023-07-29T06:11:41;3.80;;;2.60;;
1467;SDS011;727;48.892;9.544;2023-07-29T06:14:09;3.37;;;2.00;;
1467;SDS011;727;48.892;9.544;2023-07-29T06:16:36;2.57;;;1.63;;
1467;SDS011;727;48.892;9.544;2023-07-29T06:19:03;2.93;;;1.80;;
1467;SDS011;727;48.892;9.544;2023-07-29T06:21:30;3.47;;;2.37;;
1467;SDS011;727;48.892;9.544;2023-07-29T06:23:57;3.90;;;3.17;;
1467;SDS011;727;48.892;9.544;2023-07-29T06:26:24;2.70;;;2.50;;
1467;SDS011;727;48.892;9.544;2023-07-29T06:28:50;4.80;;;2.50;;
1467;SDS011;727;48.892;9.544;2023-07-29T06:31:18;3.23;;;2.20;;
1467;SDS011;727;48.892;9.544;2023-07-29T06:33:45;4.13;;;2.33;;
1467;SDS011;727;48.892;9.544;2023-07-29T06:36:12;2.27;;;1.70;;
1467;SDS011;727;48.892;9.544;2023-07-29T06:38:39;3.00;;;2.27;;
1467;SDS011;727;48.892;9.544;2023-07-29T06:41:06;5.20;;;2.60;;
1467;SDS011;727;48.892;9.544;2023-07-29T06:43:33;3.93;;;2.30;;
1467;SDS011;727;48.892;9.544;2023-07-29T06:46:00;4.70;;;2.70;;
1467;SDS011;727;48.892;9.544;2023-07-29T06:48:28;1.60;;;1.50;;
1467;SDS011;727;48.892;9.544;2023-07-29T06:50:55;3.53;;;2.33;;
1467;SDS011;727;48.892;9.544;2023-07-29T06:53:25;2.93;;;1.87;;
1467;SDS011;727;48.892;9.544;2023-07-29T06:55:52;2.07;;;1.97;;
1467;SDS011;727;48.892;9.544;2023-07-29T06:58:19;2.90;;;2.00;;
1467;SDS011;727;48.892;9.544;2023-07-29T07:00:46;5.30;;;2.50;;
1467;SDS011;727;48.892;9.544;2023-07-29T07:03:13;4.40;;;2.33;;
1467;SDS011;727;48.892;9.544;2023-07-29T07:05:41;5.90;;;2.80;;
1467;SDS011;727;48.892;9.544;2023-07-29T07:08:08;2.97;;;2.60;;
1467;SDS011;727;48.892;9.544;2023-07-29T07:10:34;2.70;;;2.20;;
1467;SDS011;727;48.892;9.544;2023-07-29T07:13:01;3.43;;;2.63;;
1467;SDS011;727;48.892;9.544;2023-07-29T07:15:28;3.30;;;2.93;;
1467;SDS011;727;48.892;9.544;2023-07-29T07:17:55;2.77;;;2.50;;
1467;SDS011;727;48.892;9.544;2023-07-29T07:20:21;2.57;;;2.37;;
1467;SDS011;727;48.892;9.544;2023-07-29T07:22:49;2.77;;;2.20;;
1467;SDS011;727;48.892;9.544;2023-07-29T07:25:17;2.40;;;2.20;;
1467;SDS011;727;48.892;9.544;2023-07-29T07:27:44;3.03;;;2.57;;
1467;SDS011;727;48.892;9.544;2023-07-29T07:30:11;3.30;;;3.00;;
1467;SDS011;727;48.892;9.544;2023-07-29T07:32:37;4.63;;;3.00;;
1467;SDS011;727;48.892;9.544;2023-07-29T07:35:04;3.77;;;3.40;;
1467;SDS011;727;48.892;9.544;2023-07-29T07:37:31;5.47;;;3.37;;
1467;SDS011;727;48.892;9.544;2023-07-29T07:39:59;5.07;;;3.63;;
1467;SDS011;727;48.892;9.544;2023-07-29T07:42:26;5.13;;;3.67;;
1467;SDS011;727;48.892;9.544;2023-07-29T07:44:53;4.93;;;3.40;;
1467;SDS011;727;48.892;9.544;2023-07-29T07:47:19;5.33;;;3.17;;
1467;SDS011;727;48.892;9.544;2023-07-29T07:49:46;5.17;;;3.70;;
1467;SDS011;727;48.892;9.544;2023-07-29T07:52:14;6.37;;;3.57;;
1467;SDS011;727;48.892;9.544;2023-07-29T07:54:41;4.30;;;3.20;;
1467;SDS011;727;48.892;9.544;2023-07-29T07:57:09;2.93;;;2.73;;
1467;SDS011;727;48.892;9.544;2023-07-29T07:59:35;4.73;;;2.80;;
1467;SDS011;727;48.892;9.544;2023-07-29T08:02:02;3.43;;;2.90;;
1467;SDS011;727;48.892;9.544;2023-07-29T08:04:29;2.43;;;2.23;;
1467;SDS011;727;48.892;9.544;2023-07-29T08:06:56;3.47;;;3.17;;
1467;SDS011;727;48.892;9.544;2023-07-29T08:09:23;3.50;;;3.30;;
1467;SDS011;727;48.892;9.544;2023-07-29T08:11:49;3.50;;;2.57;;
1467;SDS011;727;48.892;9.544;2023-07-29T08:14:18;6.17;;;3.10;;
1467;SDS011;727;48.892;9.544;2023-07-29T08:16:44;3.33;;;2.70;;
1467;SDS011;727;48.892;9.544;2023-07-29T08:19:11;3.67;;;2.80;;
1467;SDS011;727;48.892;9.544;2023-07-29T08:21:38;5.00;;;3.00;;
1467;SDS011;727;48.892;9.544;2023-07-29T08:24:04;7.80;;;3.30;;
1467;SDS011;727;48.892;9.544;2023-07-29T08:26:35;3.93;;;3.00;;
1467;SDS011;727;48.892;9.544;2023-07-29T08:29:05;4.27;;;3.97;;
1467;SDS011;727;48.892;9.544;2023-07-29T08:31:34;5.60;;;5.10;;
1467;SDS011;727;48.892;9.544;2023-07-29T08:34:00;7.87;;;6.77;;
1467;SDS011;727;48.892;9.544;2023-07-29T08:36:27;5.40;;;4.90;;
1467;SDS011;727;48.892;9.544;2023-07-29T08:38:54;4.30;;;3.90;;
1467;SDS011;727;48.892;9.544;2023-07-29T08:41:21;5.17;;;2.70;;
1467;SDS011;727;48.892;9.544;2023-07-29T08:43:59;4.07;;;2.03;;
1467;SDS011;727;48.892;9.544;2023-07-29T08:46:30;2.33;;;1.90;;
1467;SDS011;727;48.892;9.544;2023-07-29T08:48:59;3.07;;;1.70;;
1467;SDS011;727;48.892;9.544;2023-07-29T08:51:27;2.97;;;2.30;;
1467;SDS011;727;48.892;9.544;2023-07-29T08:53:57;2.00;;;1.60;;
1467;SDS011;727;48.892;9.544;2023-07-29T08:56:25;2.00;;;1.77;;
1467;SDS011;727;48.892;9.544;2023-07-29T08:58:53;2.27;;;1.80;;
1467;SDS011;727;48.892;9.544;2023-07-29T09:01:20;4.00;;;1.57;;
1467;SDS011;727;48.892;9.544;2023-07-29T09:03:47;3.70;;;1.90;;
1467;SDS011;727;48.892;9.544;2023-07-29T09:06:15;3.73;;;1.57;;
1467;SDS011;727;48.892;9.544;2023-07-29T09:08:43;3.60;;;1.90;;
1467;SDS011;727;48.892;9.544;2023-07-29T09:11:12;3.60;;;1.73;;
1467;SDS011;727;48.892;9.544;2023-07-29T09:13:42;2.17;;;2.03;;
1467;SDS011;727;48.892;9.544;2023-07-29T09:16:08;1.90;;;1.63;;
1467;SDS011;727;48.892;9.544;2023-07-29T09:18:36;2.07;;;1.70;;
1467;SDS011;727;48.892;9.544;2023-07-29T09:21:03;1.63;;;1.53;;
1467;SDS011;727;48.892;9.544;2023-07-29T09:23:39;3.00;;;1.80;;
1467;SDS011;727;48.892;9.544;2023-07-29T09:26:07;2.83;;;2.00;;
1467;SDS011;727;48.892;9.544;2023-07-29T09:28:34;4.10;;;2.30;;
1467;SDS011;727;48.892;9.544;2023-07-29T09:31:02;2.00;;;1.90;;
1467;SDS011;727;48.892;9.544;2023-07-29T09:33:29;2.47;;;1.70;;
1467;SDS011;727;48.892;9.544;2023-07-29T09:36:00;1.90;;;1.80;;
1467;SDS011;727;48.892;9.544;2023-07-29T09:38:27;2.80;;;1.43;;
1467;SDS011;727;48.892;9.544;2023-07-29T09:40:56;1.77;;;1.50;;
1467;SDS011;727;48.892;9.544;2023-07-29T09:43:25;3.33;;;1.80;;
1467;SDS011;727;48.892;9.544;2023-07-29T09:45:52;2.67;;;1.80;;
1467;SDS011;727;48.892;9.544;2023-07-29T09:48:22;2.87;;;1.93;;
1467;SDS011;727;48.892;9.544;2023-07-29T09:50:49;4.40;;;2.50;;
1467;SDS011;727;48.892;9.544;2023-07-29T09:53:19;2.00;;;1.90;;
1467;SDS011;727;48.892;9.544;2023-07-29T09:55:46;2.27;;;1.87;;
1467;SDS011;727;48.892;9.544;2023-07-29T09:58:19;4.30;;;1.77;;
1467;SDS011;727;48.892;9.544;2023-07-29T10:00:56;2.00;;;1.80;;
1467;SDS011;727;48.892;9.544;2023-07-29T10:03:23;1.73;;;1.63;;
1467;SDS011;727;48.892;9.544;2023-07-29T10:06:05;1.83;;;1.73;;
1467;SDS011;727;48.892;9.544;2023-07-29T10:08:33;2.33;;;2.13;;
1467;SDS011;727;48.892;9.544;2023-07-29T10:11:09;3.53;;;2.10;;
1467;SDS011;727;48.892;9.544;2023-07-29T10:16:44;2.50;;;1.70;;
1467;SDS011;727;48.892;9.544;2023-07-29T10:19:15;2.80;;;1.50;;
1467;SDS011;727;48.892;9.544;2023-07-29T10:21:44;2.10;;;2.00;;
1467;SDS011;727;48.892;9.544;2023-07-29T10:24:30;1.87;;;1.77;;
1467;SDS011;727;48.892;9.544;2023-07-29T10:27:09;3.43;;;1.90;;
1467;SDS011;727;48.892;9.544;2023-07-29T10:29:41;3.70;;;1.70;;
1467;SDS011;727;48.892;9.544;2023-07-29T10:32:18;1.70;;;1.10;;
1467;SDS011;727;48.892;9.544;2023-07-29T10:37:22;3.40;;;1.00;;
1467;SDS011;727;48.892;9.544;2023-07-29T10:39:54;1.33;;;1.23;;
1467;SDS011;727;48.892;9.544;2023-07-29T10:42:21;10.30;;;1.33;;
1467;SDS011;727;48.892;9.544;2023-07-29T10:44:49;1.57;;;1.17;;
1467;SDS011;727;48.892;9.544;2023-07-29T10:47:20;1.13;;;1.03;;
1467;SDS011;727;48.892;9.544;2023-07-29T10:49:50;3.77;;;1.83;;
1467;SDS011;727;48.892;9.544;2023-07-29T10:52:29;1.03;;;1.00;;
1467;SDS011;727;48.892;9.544;2023-07-29T10:55:03;1.40;;;1.30;;
1467;SDS011;727;48.892;9.544;2023-07-29T10:57:50;1.33;;;1.23;;
1467;SDS011;727;48.892;9.544;2023-07-29T11:00:18;1.00;;;1.00;;
1467;SDS011;727;48.892;9.544;2023-07-29T11:02:56;0.90;;;0.90;;
1467;SDS011;727;48.892;9.544;2023-07-29T11:05:25;1.67;;;1.53;;
1467;SDS011;727;48.892;9.544;2023-07-29T11:07:52;1.80;;;1.30;;
1467;SDS011;727;48.892;9.544;2023-07-29T11:10:21;1.80;;;1.70;;
1467;SDS011;727;48.892;9.544;2023-07-29T11:12:54;1.33;;;1.23;;
1467;SDS011;727;48.892;9.544;2023-07-29T11:15:23;1.17;;;1.07;;
1467;SDS011;727;48.892;9.544;2023-07-29T11:17:53;1.90;;;1.43;;
1467;SDS011;727;48.892;9.544;2023-07-29T11:20:22;2.30;;;1.50;;
1467;SDS011;727;48.892;9.544;2023-07-29T11:22:49;2.63;;;1.63;;
1467;SDS011;727;48.892;9.544;2023-07-29T11:25:17;2.27;;;1.70;;
1467;SDS011;727;48.892;9.544;2023-07-29T11:27:45;1.40;;;1.30;;
1467;SDS011;727;48.892;9.544;2023-07-29T11:30:12;1.47;;;1.37;;
1467;SDS011;727;48.892;9.544;2023-07-29T11:32:41;2.63;;;1.70;;
1467;SDS011;727;48.892;9.544;2023-07-29T11:35:11;2.60;;;1.57;;
1467;SDS011;727;48.892;9.544;2023-07-29T11:37:52;1.43;;;1.33;;
1467;SDS011;727;48.892;9.544;2023-07-29T11:40:34;1.57;;;1.40;;
1467;SDS011;727;48.892;9.544;2023-07-29T11:43:01;2.43;;;1.40;;
1467;SDS011;727;48.892;9.544;2023-07-29T11:45:29;2.60;;;1.47;;
1467;SDS011;727;48.892;9.544;2023-07-29T11:47:55;1.40;;;1.30;;
1467;SDS011;727;48.892;9.544;2023-07-29T11:50:34;1.53;;;1.43;;
1467;SDS011;727;48.892;9.544;2023-07-29T11:53:01;1.00;;;1.00;;
1467;SDS011;727;48.892;9.544;2023-07-29T11:55:49;1.57;;;1.30;;
1467;SDS011;727;48.892;9.544;2023-07-29T12:01:00;2.33;;;1.47;;
1467;SDS011;727;48.892;9.544;2023-07-29T12:03:27;1.87;;;1.17;;
1467;SDS011;727;48.892;9.544;2023-07-29T12:05:56;1.40;;;1.30;;
1467;SDS011;727;48.892;9.544;2023-07-29T12:08:24;1.23;;;1.23;;
1467;SDS011;727;48.892;9.544;2023-07-29T12:10:51;1.83;;;1.37;;
1467;SDS011;727;48.892;9.544;2023-07-29T12:13:18;1.37;;;1.20;;
1467;SDS011;727;48.892;9.544;2023-07-29T12:15:45;2.13;;;1.27;;
1467;SDS011;727;48.892;9.544;2023-07-29T12:18:12;1.73;;;0.90;;
1467;SDS011;727;48.892;9.544;2023-07-29T12:20:39;2.13;;;1.17;;
1467;SDS011;727;48.892;9.544;2023-07-29T12:23:08;1.27;;;1.27;;
1467;SDS011;727;48.892;9.544;2023-07-29T12:25:35;1.63;;;1.30;;
1467;SDS011;727;48.892;9.544;2023-07-29T12:28:02;3.10;;;1.60;;
1467;SDS011;727;48.892;9.544;2023-07-29T12:30:31;4.20;;;1.07;;
1467;SDS011;727;48.892;9.544;2023-07-29T12:32:58;2.60;;;1.10;;
1467;SDS011;727;48.892;9.544;2023-07-29T12:35:33;1.20;;;1.10;;
1467;SDS011;727;48.892;9.544;2023-07-29T12:38:01;1.20;;;1.13;;
1467;SDS011;727;48.892;9.544;2023-07-29T12:40:29;1.13;;;1.03;;
1467;SDS011;727;48.892;9.544;2023-07-29T12:42:56;1.50;;;1.40;;
1467;SDS011;727;48.892;9.544;2023-07-29T12:45:23;1.60;;;1.43;;
1467;SDS011;727;48.892;9.544;2023-07-29T12:47:51;2.30;;;2.10;;
1467;SDS011;727;48.892;9.544;2023-07-29T12:50:18;1.97;;;1.87;;
1467;SDS011;727;48.892;9.544;2023-07-29T12:52:46;2.67;;;1.37;;
1467;SDS011;727;48.892;9.544;2023-07-29T12:55:12;1.50;;;1.40;;
1467;SDS011;727;48.892;9.544;2023-07-29T12:57:41;1.30;;;1.20;;
1467;SDS011;727;48.892;9.544;2023-07-29T13:00:09;2.10;;;1.57;;
1467;SDS011;727;48.892;9.544;2023-07-29T13:02:36;2.50;;;1.47;;
1467;SDS011;727;48.892;9.544;2023-07-29T13:05:03;1.90;;;1.07;;
1467;SDS011;727;48.892;9.544;2023-07-29T13:07:31;1.63;;;1.50;;
1467;SDS011;727;48.892;9.544;2023-07-29T13:09:58;1.20;;;1.10;;
1467;SDS011;727;48.892;9.544;2023-07-29T13:12:25;2.53;;;1.40;;
1467;SDS011;727;48.892;9.544;2023-07-29T13:14:53;2.03;;;1.40;;
1467;SDS011;727;48.892;9.544;2023-07-29T13:17:20;1.60;;;1.50;;
1467;SDS011;727;48.892;9.544;2023-07-29T13:19:48;1.60;;;1.50;;
1467;SDS011;727;48.892;9.544;2023-07-29T13:22:15;1.70;;;1.60;;
1467;SDS011;727;48.892;9.544;2023-07-29T13:24:41;2.60;;;1.70;;
1467;SDS011;727;48.892;9.544;2023-07-29T13:27:08;2.10;;;2.00;;
1467;SDS011;727;48.892;9.544;2023-07-29T13:29:35;1.77;;;1.67;;
1467;SDS011;727;48.892;9.544;2023-07-29T13:32:04;5.20;;;1.97;;
1467;SDS011;727;48.892;9.544;2023-07-29T13:34:31;1.93;;;1.83;;
1467;SDS011;727;48.892;9.544;2023-07-29T13:36:59;4.00;;;2.07;;
1467;SDS011;727;48.892;9.544;2023-07-29T13:39:26;1.83;;;1.73;;
1467;SDS011;727;48.892;9.544;2023-07-29T13:41:53;2.73;;;1.93;;
1467;SDS011;727;48.892;9.544;2023-07-29T13:44:20;2.53;;;1.70;;
1467;SDS011;727;48.892;9.544;2023-07-29T13:46:47;3.00;;;1.70;;
1467;SDS011;727;48.892;9.544;2023-07-29T13:49:15;4.30;;;2.07;;
1467;SDS011;727;48.892;9.544;2023-07-29T13:51:43;2.10;;;1.90;;
1467;SDS011;727;48.892;9.544;2023-07-29T13:54:09;2.53;;;2.07;;
1467;SDS011;727;48.892;9.544;2023-07-29T13:56:36;1.97;;;1.87;;
1467;SDS011;727;48.892;9.544;2023-07-29T13:59:03;1.83;;;1.73;;
1467;SDS011;727;48.892;9.544;2023-07-29T14:01:30;1.77;;;1.63;;
1467;SDS011;727;48.892;9.544;2023-07-29T14:03:57;8.00;;;1.63;;
1467;SDS011;727;48.892;9.544;2023-07-29T14:06:25;2.07;;;1.93;;
1467;SDS011;727;48.892;9.544;2023-07-29T14:08:52;1.90;;;1.80;;
1467;SDS011;727;48.892;9.544;2023-07-29T14:11:18;5.30;;;1.37;;
1467;SDS011;727;48.892;9.544;2023-07-29T14:13:45;2.00;;;1.70;;
1467;SDS011;727;48.892;9.544;2023-07-29T14:16:12;4.57;;;2.30;;
1467;SDS011;727;48.892;9.544;2023-07-29T14:18:39;2.80;;;2.43;;
1467;SDS011;727;48.892;9.544;2023-07-29T14:21:06;2.37;;;1.67;;
1467;SDS011;727;48.892;9.544;2023-07-29T14:23:34;1.63;;;1.40;;
1467;SDS011;727;48.892;9.544;2023-07-29T14:26:01;1.67;;;1.57;;
1467;SDS011;727;48.892;9.544;2023-07-29T14:28:28;1.97;;;1.87;;
1467;SDS011;727;48.892;9.544;2023-07-29T14:30:55;2.00;;;1.90;;
1467;SDS011;727;48.892;9.544;2023-07-29T14:33:22;1.60;;;1.50;;
1467;SDS011;727;48.892;9.544;2023-07-29T14:35:49;1.80;;;1.70;;
1467;SDS011;727;48.892;9.544;2023-07-29T14:38:16;1.87;;;1.77;;
1467;SDS011;727;48.892;9.544;2023-07-29T14:40:47;3.40;;;2.00;;
1467;SDS011;727;48.892;9.544;2023-07-29T14:43:15;3.10;;;1.70;;
1467;SDS011;727;48.892;9.544;2023-07-29T14:45:42;2.40;;;2.00;;
1467;SDS011;727;48.892;9.544;2023-07-29T14:48:09;3.53;;;1.87;;
1467;SDS011;727;48.892;9.544;2023-07-29T14:50:36;1.77;;;1.67;;
1467;SDS011;727;48.892;9.544;2023-07-29T14:53:03;3.07;;;2.00;;
1467;SDS011;727;48.892;9.544;2023-07-29T14:55:30;2.07;;;1.57;;
1467;SDS011;727;48.892;9.544;2023-07-29T14:57:58;1.93;;;1.67;;
1467;SDS011;727;48.892;9.544;2023-07-29T15:00:25;1.90;;;1.80;;
1467;SDS011;727;48.892;9.544;2023-07-29T15:02:51;2.07;;;1.90;;
1467;SDS011;727;48.892;9.544;2023-07-29T15:05:18;2.53;;;1.63;;
1467;SDS011;727;48.892;9.544;2023-07-29T15:07:45;1.67;;;1.57;;
1467;SDS011;727;48.892;9.544;2023-07-29T15:10:13;2.53;;;1.50;;
1467;SDS011;727;48.892;9.544;2023-07-29T15:12:41;4.37;;;1.80;;
1467;SDS011;727;48.892;9.544;2023-07-29T15:15:10;2.20;;;1.60;;
1467;SDS011;727;48.892;9.544;2023-07-29T15:17:38;5.50;;;2.57;;
1467;SDS011;727;48.892;9.544;2023-07-29T15:20:05;2.43;;;1.80;;
1467;SDS011;727;48.892;9.544;2023-07-29T15:22:32;3.10;;;2.00;;
1467;SDS011;727;48.892;9.544;2023-07-29T15:24:59;1.93;;;1.67;;
1467;SDS011;727;48.892;9.544;2023-07-29T15:27:26;1.73;;;1.63;;
1467;SDS011;727;48.892;9.544;2023-07-29T15:29:53;4.07;;;1.50;;
1467;SDS011;727;48.892;9.544;2023-07-29T15:32:21;2.23;;;1.67;;
1467;SDS011;727;48.892;9.544;2023-07-29T15:34:48;1.63;;;1.53;;
1467;SDS011;727;48.892;9.544;2023-07-29T15:37:15;2.73;;;1.70;;
1467;SDS011;727;48.892;9.544;2023-07-29T15:39:42;3.20;;;2.20;;
1467;SDS011;727;48.892;9.544;2023-07-29T15:42:09;2.17;;;2.07;;
1467;SDS011;727;48.892;9.544;2023-07-29T15:44:36;2.17;;;2.07;;